CDT,Max TemperatureF,Mean TemperatureF,Min TemperatureF,Max Dew PointF,MeanDew PointF,Min DewpointF,Max Humidity, Mean Humidity, Min Humidity, Max Sea Level PressureIn, Mean Sea Level PressureIn, Min Sea Level PressureIn, Max VisibilityMiles, Mean VisibilityMiles, Min VisibilityMiles, Max Wind SpeedMPH, Mean Wind SpeedMPH, Max Gust SpeedMPH,PrecipitationIn, CloudCover, Events, WindDirDegrees
2012-10-1,71,62,53,70,62,54,100,94,83,29.81,29.66,29.55,10.0,7.8,0.2,15,6,,0.00,7,,122
2012-10-2,66,60,53,66,60,54,100,94,82,30.01,29.81,29.65,10.0,9.4,1.5,9,4,,0.00,7,,240
2012-10-3,71,60,48,59,54,48,100,86,57,30.21,30.11,30.01,10.0,6.8,0.2,8,1,,0.00,2,,202
2012-10-4,78,63,48,64,57,48,100,86,54,30.31,30.25,30.21,10.0,7.7,0.2,7,1,,0.00,0,,214
2012-10-5,78,63,48,64,58,48,100,86,54,30.23,30.13,29.99,10.0,7.3,0.2,12,2,,0.00,1,,215
2012-10-6,62,54,46,61,48,43,100,89,63,30.16,30.10,29.98,10.0,9.6,2.5,10,4,,0.00,5,,5
2012-10-7,55,48,42,46,44,41,100,88,62,30.21,30.14,30.09,10.0,10.0,7.0,7,2,,0.00,4,,352
2012-10-8,53,45,37,46,44,36,100,91,72,30.23,30.17,30.13,10.0,9.2,0.2,7,2,,0.00,5,,54
2012-10-9,60,46,32,50,43,32,100,90,63,30.18,30.12,30.04,10.0,8.2,0.5,8,1,,0.00,1,,176
2012-10-10,60,48,37,55,48,37,100,93,67,30.25,30.15,30.04,10.0,9.5,2.5,9,2,,0.00,4,,262
2012-10-11,69,50,32,55,44,32,100,83,46,30.29,30.25,30.22,10.0,9.1,0.8,8,1,,0.00,3,,237
2012-10-12,60,56,53,61,56,54,100,97,88,30.30,30.27,30.22,10.0,7.9,1.0,8,1,,0.00,8,,18
2012-10-13,75,60,46,66,57,46,100,86,69,30.30,30.24,30.15,10.0,9.4,0.5,14,4,,0.00,1,,183
2012-10-14,71,66,60,66,62,55,100,89,77,30.16,30.04,29.92,10.0,9.6,1.0,21,11,31,0.00,4,,196
2012-10-15,66,54,42,64,52,43,100,87,59,30.01,29.97,29.94,10.0,8.1,0.2,12,3,,0.00,2,,319
2012-10-16,69,53,37,55,48,37,100,84,49,30.03,29.96,29.87,10.0,9.4,2.0,5,0,,0.00,0,,193
2012-10-17,73,58,44,57,51,43,100,74,46,29.91,29.82,29.67,10.0,10.0,9.0,15,4,,0.00,0,,176
2012-10-18,66,60,53,57,51,43,100,78,46,29.81,29.76,29.66,10.0,9.6,2.0,17,9,25,0.00,3,,220
2012-10-19,64,52,39,48,43,39,100,74,45,29.84,29.76,29.70,10.0,10.0,9.0,16,3,,0.00,3,,235
2012-10-20,57,49,39,48,45,39,100,83,63,30.02,29.93,29.84,10.0,10.0,10.0,10,2,,0.00,5,,287
2012-10-21,73,55,37,54,46,37,100,79,43,30.16,30.11,30.03,10.0,9.9,6.0,7,1,,0.00,0,,182
2012-10-22,80,66,51,61,53,48,100,74,36,30.21,30.16,30.12,10.0,9.9,6.0,8,2,,0.00,3,,200
2012-10-23,78,63,48,57,53,46,100,77,42,30.18,30.13,30.08,10.0,10.0,10.0,13,2,,0.00,0,,202
2012-10-24,78,61,44,55,49,43,100,76,34,30.19,30.13,30.07,10.0,10.0,9.0,8,1,,0.00,0,,189
2012-10-25,78,62,46,59,54,46,100,74,47,30.12,30.06,30.01,10.0,9.2,2.5,13,3,,0.00,0,,189
2012-10-26,71,60,46,61,54,46,100,88,69,30.10,30.05,29.99,10.0,10.0,8.0,10,2,,0.00,4,,349
2012-10-27,48,46,44,46,44,43,100,95,87,30.07,30.02,29.97,10.0,9.4,2.5,12,6,,0.00,8,,13
2012-10-28,48,45,42,43,40,32,100,82,66,30.03,29.98,29.94,10.0,9.8,6.0,10,7,,0.00,8,,15
2012-10-29,50,42,33,34,29,19,87,63,32,30.04,29.98,29.83,10.0,10.0,10.0,16,8,24,0.00,1,,340
2012-10-30,48,42,37,30,26,19,70,52,32,29.83,29.77,29.72,10.0,10.0,10.0,14,9,24,0.00,4,,316
2012-10-31,55,40,26,28,26,23,93,57,30,29.95,29.87,29.81,10.0,10.0,10.0,13,3,,0.00,0,,296